sensor_id;sensor_type;location;lat;lon;timestamp;pressure;altitude;pressure_sealevel;temperature;humidity
46347;BME280;32057;47.830;19.046;2023-12-14T00:00:11;98815.63;;;3.39;100.00
46347;BME280;32057;47.830;19.046;2023-12-14T00:02:38;98818.25;;;3.43;100.00
46347;BME280;32057;47.830;19.046;2023-12-14T00:05:03;98820.81;;;3.43;100.00
46347;BME280;32057;47.830;19.046;2023-12-14T00:07:29;98822.56;;;3.44;100.00
46347;BME280;32057;47.830;19.046;2023-12-14T00:09:54;98831.19;;;3.46;100.00
46347;BME280;32057;47.830;19.046;2023-12-14T00:12:20;98835.44;;;3.45;100.00
46347;BME280;32057;47.830;19.046;2023-12-14T00:14:45;98831.19;;;3.46;100.00
46347;BME280;32057;47.830;19.046;2023-12-14T00:17:10;98838.00;;;3.44;100.00
46347;BME280;32057;47.830;19.046;2023-12-14T00:19:36;98838.91;;;3.46;100.00
46347;BME280;32057;47.830;19.046;2023-12-14T00:22:01;98837.25;;;3.48;100.00
46347;BME280;32057;47.830;19.046;2023-12-14T00:24:27;98835.53;;;3.48;100.00
46347;BME280;32057;47.830;19.046;2023-12-14T00:26:52;98846.63;;;3.46;100.00
46347;BME280;32057;47.830;19.046;2023-12-14T00:29:18;98846.69;;;3.49;100.00
46347;BME280;32057;47.830;19.046;2023-12-14T00:31:45;98852.78;;;3.52;100.00
46347;BME280;32057;47.830;19.046;2023-12-14T00:34:11;98857.16;;;3.56;100.00
46347;BME280;32057;47.830;19.046;2023-12-14T00:36:36;98856.34;;;3.57;100.00
46347;BME280;32057;47.830;19.046;2023-12-14T00:39:02;98851.16;;;3.56;100.00
46347;BME280;32057;47.830;19.046;2023-12-14T00:41:27;98847.84;;;3.62;100.00
46347;BME280;32057;47.830;19.046;2023-12-14T00:43:53;98848.72;;;3.62;100.00
46347;BME280;32057;47.830;19.046;2023-12-14T00:46:19;98847.06;;;3.64;100.00
46347;BME280;32057;47.830;19.046;2023-12-14T00:48:44;98853.94;;;3.65;100.00
46347;BME280;32057;47.830;19.046;2023-12-14T00:51:09;98844.59;;;3.69;100.00
46347;BME280;32057;47.830;19.046;2023-12-14T00:53:35;98854.06;;;3.71;100.00
46347;BME280;32057;47.830;19.046;2023-12-14T00:56:00;98852.25;;;3.66;100.00
46347;BME280;32057;47.830;19.046;2023-12-14T00:58:26;98865.09;;;3.66;100.00
46347;BME280;32057;47.830;19.046;2023-12-14T01:00:51;98860.03;;;3.69;100.00
46347;BME280;32057;47.830;19.046;2023-12-14T01:03:20;98866.91;;;3.70;100.00
46347;BME280;32057;47.830;19.046;2023-12-14T01:05:45;98874.72;;;3.74;100.00
46347;BME280;32057;47.830;19.046;2023-12-14T01:08:10;98883.34;;;3.76;100.00
46347;BME280;32057;47.830;19.046;2023-12-14T01:10:36;98889.38;;;3.77;100.00
46347;BME280;32057;47.830;19.046;2023-12-14T01:13:01;98893.69;;;3.78;100.00
46347;BME280;32057;47.830;19.046;2023-12-14T01:15:27;98903.09;;;3.76;100.00
46347;BME280;32057;47.830;19.046;2023-12-14T01:17:52;98912.53;;;3.77;100.00
46347;BME280;32057;47.830;19.046;2023-12-14T01:20:18;98925.38;;;3.77;100.00
46347;BME280;32057;47.830;19.046;2023-12-14T01:22:43;98937.38;;;3.76;100.00
46347;BME280;32057;47.830;19.046;2023-12-14T01:25:09;98950.25;;;3.76;100.00
46347;BME280;32057;47.830;19.046;2023-12-14T01:27:34;98946.81;;;3.76;100.00
46347;BME280;32057;47.830;19.046;2023-12-14T01:29:59;98951.06;;;3.74;100.00
46347;BME280;32057;47.830;19.046;2023-12-14T01:32:25;98948.53;;;3.75;100.00
46347;BME280;32057;47.830;19.046;2023-12-14T01:34:50;98950.22;;;3.75;100.00
46347;BME280;32057;47.830;19.046;2023-12-14T01:37:16;98946.81;;;3.76;100.00
46347;BME280;32057;47.830;19.046;2023-12-14T01:39:41;98939.06;;;3.74;100.00
46347;BME280;32057;47.830;19.046;2023-12-14T01:42:06;98932.97;;;3.71;100.00
46347;BME280;32057;47.830;19.046;2023-12-14T01:44:32;98926.19;;;3.74;100.00
46347;BME280;32057;47.830;19.046;2023-12-14T01:46:58;98926.28;;;3.77;100.00
46347;BME280;32057;47.830;19.046;2023-12-14T01:49:23;98921.94;;;3.76;100.00
46347;BME280;32057;47.830;19.046;2023-12-14T01:51:49;98923.72;;;3.79;100.00
46347;BME280;32057;47.830;19.046;2023-12-14T01:54:14;98923.72;;;3.79;100.00
46347;BME280;32057;47.830;19.046;2023-12-14T01:56:40;98923.72;;;3.77;100.00
46347;BME280;32057;47.830;19.046;2023-12-14T01:59:06;98909.09;;;3.76;100.00
46347;BME280;32057;47.830;19.046;2023-12-14T02:04:05;98890.97;;;3.72;100.00
46347;BME280;32057;47.830;19.046;2023-12-14T02:06:34;98889.88;;;3.62;100.00
46347;BME280;32057;47.830;19.046;2023-12-14T02:08:59;98877.94;;;3.64;100.00
46347;BME280;32057;47.830;19.046;2023-12-14T02:11:25;98887.38;;;3.65;100.00
46347;BME280;32057;47.830;19.046;2023-12-14T02:13:50;98877.22;;;3.71;100.00
46347;BME280;32057;47.830;19.046;2023-12-14T02:16:16;98879.72;;;3.68;100.00
46347;BME280;32057;47.830;19.046;2023-12-14T02:18:41;98875.44;;;3.69;100.00
46347;BME280;32057;47.830;19.046;2023-12-14T02:21:07;98871.16;;;3.69;100.00
46347;BME280;32057;47.830;19.046;2023-12-14T02:23:32;98869.44;;;3.68;100.00
46347;BME280;32057;47.830;19.046;2023-12-14T02:25:58;98870.34;;;3.70;100.00
46347;BME280;32057;47.830;19.046;2023-12-14T02:28:24;98872.72;;;3.63;100.00
46347;BME280;32057;47.830;19.046;2023-12-14T02:30:49;98870.09;;;3.59;100.00
46347;BME280;32057;47.830;19.046;2023-12-14T02:33:15;98882.22;;;3.64;100.00
46347;BME280;32057;47.830;19.046;2023-12-14T02:35:40;98886.53;;;3.66;100.00
46347;BME280;32057;47.830;19.046;2023-12-14T02:38:06;98881.41;;;3.66;100.00
46347;BME280;32057;47.830;19.046;2023-12-14T02:40:31;98890.84;;;3.67;100.00
46347;BME280;32057;47.830;19.046;2023-12-14T02:42:57;98889.16;;;3.68;100.00
46347;BME280;32057;47.830;19.046;2023-12-14T02:45:22;98890.88;;;3.69;100.00
46347;BME280;32057;47.830;19.046;2023-12-14T02:47:47;98884.63;;;3.59;100.00
46347;BME280;32057;47.830;19.046;2023-12-14T02:50:15;98890.50;;;3.53;100.00
46347;BME280;32057;47.830;19.046;2023-12-14T02:52:40;98893.06;;;3.52;100.00
46347;BME280;32057;47.830;19.046;2023-12-14T02:55:06;98891.25;;;3.49;100.00
46347;BME280;32057;47.830;19.046;2023-12-14T02:57:32;98904.06;;;3.46;100.00
46347;BME280;32057;47.830;19.046;2023-12-14T02:59:57;98912.72;;;3.50;100.00
46347;BME280;32057;47.830;19.046;2023-12-14T03:02:22;98922.16;;;3.51;100.00
46347;BME280;32057;47.830;19.046;2023-12-14T03:04:48;98923.06;;;3.53;100.00
46347;BME280;32057;47.830;19.046;2023-12-14T03:07:16;98931.75;;;3.56;100.00
46347;BME280;32057;47.830;19.046;2023-12-14T03:09:41;98931.78;;;3.58;100.00
46347;BME280;32057;47.830;19.046;2023-12-14T03:12:09;98939.56;;;3.61;100.00
46347;BME280;32057;47.830;19.046;2023-12-14T03:14:35;98945.66;;;3.65;100.00
46347;BME280;32057;47.830;19.046;2023-12-14T03:17:00;98940.56;;;3.66;100.00
46347;BME280;32057;47.830;19.046;2023-12-14T03:19:26;98948.38;;;3.71;100.00
46347;BME280;32057;47.830;19.046;2023-12-14T03:21:51;98941.53;;;3.71;100.00
46347;BME280;32057;47.830;19.046;2023-12-14T03:24:17;98936.34;;;3.68;100.00
46347;BME280;32057;47.830;19.046;2023-12-14T03:26:43;98942.38;;;3.70;100.00
46347;BME280;32057;47.830;19.046;2023-12-14T03:29:08;98935.53;;;3.71;100.00
46347;BME280;32057;47.830;19.046;2023-12-14T03:31:34;98933.00;;;3.72;100.00
46347;BME280;32057;47.830;19.046;2023-12-14T03:34:00;98941.63;;;3.74;100.00
46347;BME280;32057;47.830;19.046;2023-12-14T03:36:26;98943.38;;;3.75;100.00
46347;BME280;32057;47.830;19.046;2023-12-14T03:38:53;98947.69;;;3.76;100.00
46347;BME280;32057;47.830;19.046;2023-12-14T03:41:18;98946.72;;;3.73;100.00
46347;BME280;32057;47.830;19.046;2023-12-14T03:43:44;98947.59;;;3.73;100.00
46347;BME280;32057;47.830;19.046;2023-12-14T03:46:10;98960.50;;;3.75;100.00
46347;BME280;32057;47.830;19.046;2023-12-14T03:48:35;98959.63;;;3.74;100.00
46347;BME280;32057;47.830;19.046;2023-12-14T03:51:04;98966.53;;;3.75;100.00
46347;BME280;32057;47.830;19.046;2023-12-14T03:53:30;98965.66;;;3.75;100.00
46347;BME280;32057;47.830;19.046;2023-12-14T03:56:00;98971.63;;;3.74;100.00
46347;BME280;32057;47.830;19.046;2023-12-14T03:58:25;98974.97;;;3.70;100.00
46347;BME280;32057;47.830;19.046;2023-12-14T04:00:52;98966.41;;;3.71;100.00
46347;BME280;32057;47.830;19.046;2023-12-14T04:03:17;98974.97;;;3.71;100.00
46347;BME280;32057;47.830;19.046;2023-12-14T04:05:43;98975.03;;;3.73;100.00
46347;BME280;32057;47.830;19.046;2023-12-14T04:08:09;98980.16;;;3.73;100.00
46347;BME280;32057;47.830;19.046;2023-12-14T04:10:35;98989.69;;;3.75;100.00
46347;BME280;32057;47.830;19.046;2023-12-14T04:13:00;98985.47;;;3.77;100.00
46347;BME280;32057;47.830;19.046;2023-12-14T04:15:26;98986.31;;;3.78;100.00
46347;BME280;32057;47.830;19.046;2023-12-14T04:17:51;98988.03;;;3.77;100.00
46347;BME280;32057;47.830;19.046;2023-12-14T04:20:17;98999.13;;;3.76;100.00
46347;BME280;32057;47.830;19.046;2023-12-14T04:22:45;98999.19;;;3.78;100.00
46347;BME280;32057;47.830;19.046;2023-12-14T04:25:11;99010.34;;;3.78;100.00
46347;BME280;32057;47.830;19.046;2023-12-14T04:27:36;99016.22;;;3.74;100.00
46347;BME280;32057;47.830;19.046;2023-12-14T04:30:05;99024.06;;;3.77;100.00
46347;BME280;32057;47.830;19.046;2023-12-14T04:32:35;99027.44;;;3.76;100.00
46347;BME280;32057;47.830;19.046;2023-12-14T04:35:01;99030.84;;;3.75;100.00
46347;BME280;32057;47.830;19.046;2023-12-14T04:37:26;99039.38;;;3.74;100.00
46347;BME280;32057;47.830;19.046;2023-12-14T04:39:52;99033.50;;;3.78;100.00
46347;BME280;32057;47.830;19.046;2023-12-14T04:42:17;99040.25;;;3.75;100.00
46347;BME280;32057;47.830;19.046;2023-12-14T04:44:43;99046.28;;;3.75;100.00
46347;BME280;32057;47.830;19.046;2023-12-14T04:47:08;99052.22;;;3.73;100.00
46347;BME280;32057;47.830;19.046;2023-12-14T04:49:33;99051.34;;;3.72;100.00
46347;BME280;32057;47.830;19.046;2023-12-14T04:51:59;99050.25;;;3.64;100.00
46347;BME280;32057;47.830;19.046;2023-12-14T04:54:24;99064.94;;;3.68;100.00
46347;BME280;32057;47.830;19.046;2023-12-14T04:56:50;99066.59;;;3.66;100.00
46347;BME280;32057;47.830;19.046;2023-12-14T04:59:15;99067.31;;;3.61;100.00
46347;BME280;32057;47.830;19.046;2023-12-14T05:01:41;99069.94;;;3.62;100.00
46347;BME280;32057;47.830;19.046;2023-12-14T05:04:06;99067.25;;;3.57;100.00
46347;BME280;32057;47.830;19.046;2023-12-14T05:06:32;99067.31;;;3.61;100.00
46347;BME280;32057;47.830;19.046;2023-12-14T05:08:58;99068.09;;;3.58;100.00
46347;BME280;32057;47.830;19.046;2023-12-14T05:11:26;99073.25;;;3.58;100.00
46347;BME280;32057;47.830;19.046;2023-12-14T05:13:51;99070.78;;;3.63;100.00
46347;BME280;32057;47.830;19.046;2023-12-14T05:16:17;99074.38;;;3.68;100.00
46347;BME280;32057;47.830;19.046;2023-12-14T05:18:42;99071.81;;;3.69;100.00
46347;BME280;32057;47.830;19.046;2023-12-14T05:21:08;99072.72;;;3.70;100.00
46347;BME280;32057;47.830;19.046;2023-12-14T05:23:33;99083.78;;;3.67;100.00
46347;BME280;32057;47.830;19.046;2023-12-14T05:25:59;99087.25;;;3.68;100.00
46347;BME280;32057;47.830;19.046;2023-12-14T05:28:25;99089.72;;;3.65;100.00
46347;BME280;32057;47.830;19.046;2023-12-14T05:30:50;99104.28;;;3.64;100.00
46347;BME280;32057;47.830;19.046;2023-12-14T05:33:16;99094.91;;;3.66;100.00
46347;BME280;32057;47.830;19.046;2023-12-14T05:35:41;99094.75;;;3.60;100.00
46347;BME280;32057;47.830;19.046;2023-12-14T05:38:07;99098.22;;;3.62;100.00
46347;BME280;32057;47.830;19.046;2023-12-14T05:40:32;99097.31;;;3.60;100.00
46347;BME280;32057;47.830;19.046;2023-12-14T05:42:58;99100.84;;;3.64;100.00
46347;BME280;32057;47.830;19.046;2023-12-14T05:45:23;99100.88;;;3.65;100.00
46347;BME280;32057;47.830;19.046;2023-12-14T05:47:49;99105.16;;;3.65;100.00
46347;BME280;32057;47.830;19.046;2023-12-14T05:50:14;99104.34;;;3.67;100.00
46347;BME280;32057;47.830;19.046;2023-12-14T05:52:40;99112.91;;;3.66;100.00
46347;BME280;32057;47.830;19.046;2023-12-14T05:55:09;99113.03;;;3.71;100.00
46347;BME280;32057;47.830;19.046;2023-12-14T05:57:37;99118.88;;;3.65;100.00
46347;BME280;32057;47.830;19.046;2023-12-14T06:00:05;99117.19;;;3.66;100.00
46347;BME280;32057;47.830;19.046;2023-12-14T06:02:32;99123.28;;;3.69;100.00
46347;BME280;32057;47.830;19.046;2023-12-14T06:04:57;99129.31;;;3.70;100.00
46347;BME280;32057;47.830;19.046;2023-12-14T06:07:23;99134.47;;;3.71;100.00
46347;BME280;32057;47.830;19.046;2023-12-14T06:09:49;99137.97;;;3.73;100.00
46347;BME280;32057;47.830;19.046;2023-12-14T06:12:14;99137.06;;;3.71;100.00
46347;BME280;32057;47.830;19.046;2023-12-14T06:14:40;99138.81;;;3.72;100.00
46347;BME280;32057;47.830;19.046;2023-12-14T06:17:05;99143.03;;;3.70;100.00
46347;BME280;32057;47.830;19.046;2023-12-14T06:19:31;99139.69;;;3.73;100.00
46347;BME280;32057;47.830;19.046;2023-12-14T06:21:57;99140.47;;;3.70;100.00
46347;BME280;32057;47.830;19.046;2023-12-14T06:24:23;99143.78;;;3.66;100.00
46347;BME280;32057;47.830;19.046;2023-12-14T06:26:48;99145.44;;;3.64;100.00
46347;BME280;32057;47.830;19.046;2023-12-14T06:29:14;99152.13;;;3.59;100.00
46347;BME280;32057;47.830;19.046;2023-12-14T06:31:39;99144.41;;;3.57;100.00
46347;BME280;32057;47.830;19.046;2023-12-14T06:34:05;99144.44;;;3.59;100.00
46347;BME280;32057;47.830;19.046;2023-12-14T06:36:31;99153.94;;;3.62;100.00
46347;BME280;32057;47.830;19.046;2023-12-14T06:38:58;99155.56;;;3.58;100.00
46347;BME280;32057;47.830;19.046;2023-12-14T06:41:25;99160.88;;;3.64;100.00
46347;BME280;32057;47.830;19.046;2023-12-14T06:43:52;99164.41;;;3.68;100.00
46347;BME280;32057;47.830;19.046;2023-12-14T06:46:18;99164.53;;;3.72;100.00
46347;BME280;32057;47.830;19.046;2023-12-14T06:48:43;99167.13;;;3.72;100.00
46347;BME280;32057;47.830;19.046;2023-12-14T06:51:09;99169.59;;;3.69;100.00
46347;BME280;32057;47.830;19.046;2023-12-14T06:53:35;99171.41;;;3.73;100.00
46347;BME280;32057;47.830;19.046;2023-12-14T06:56:03;99176.56;;;3.73;100.00
46347;BME280;32057;47.830;19.046;2023-12-14T06:58:28;99182.44;;;3.69;100.00
46347;BME280;32057;47.830;19.046;2023-12-14T07:00:54;99181.63;;;3.70;100.00
46347;BME280;32057;47.830;19.046;2023-12-14T07:03:19;99184.94;;;3.66;100.00
46347;BME280;32057;47.830;19.046;2023-12-14T07:05:44;99195.28;;;3.68;100.00
46347;BME280;32057;47.830;19.046;2023-12-14T07:08:10;99202.09;;;3.67;100.00
46347;BME280;32057;47.830;19.046;2023-12-14T07:10:35;99202.22;;;3.70;100.00
46347;BME280;32057;47.830;19.046;2023-12-14T07:13:01;99199.59;;;3.69;100.00
46347;BME280;32057;47.830;19.046;2023-12-14T07:15:26;99198.72;;;3.68;100.00
46347;BME280;32057;47.830;19.046;2023-12-14T07:17:51;99202.09;;;3.67;100.00
46347;BME280;32057;47.830;19.046;2023-12-14T07:20:17;99206.50;;;3.70;100.00
46347;BME280;32057;47.830;19.046;2023-12-14T07:22:42;99215.06;;;3.70;100.00
46347;BME280;32057;47.830;19.046;2023-12-14T07:25:08;99215.88;;;3.69;100.00
46347;BME280;32057;47.830;19.046;2023-12-14T07:27:34;99221.13;;;3.72;100.00
46347;BME280;32057;47.830;19.046;2023-12-14T07:29:59;99218.69;;;3.75;100.00
46347;BME280;32057;47.830;19.046;2023-12-14T07:32:25;99222.97;;;3.76;100.00
46347;BME280;32057;47.830;19.046;2023-12-14T07:34:50;99231.53;;;3.75;100.00
46347;BME280;32057;47.830;19.046;2023-12-14T07:37:16;99235.94;;;3.79;100.00
46347;BME280;32057;47.830;19.046;2023-12-14T07:39:41;99235.09;;;3.81;100.00
46347;BME280;32057;47.830;19.046;2023-12-14T07:42:07;99236.94;;;3.85;100.00
46347;BME280;32057;47.830;19.046;2023-12-14T07:44:32;99235.22;;;3.84;100.00
46347;BME280;32057;47.830;19.046;2023-12-14T07:47:01;99243.06;;;3.88;100.00
46347;BME280;32057;47.830;19.046;2023-12-14T07:49:27;99253.28;;;3.87;100.00
46347;BME280;32057;47.830;19.046;2023-12-14T07:51:53;99252.56;;;3.91;100.00
46347;BME280;32057;47.830;19.046;2023-12-14T07:54:18;99249.06;;;3.89;100.00
46347;BME280;32057;47.830;19.046;2023-12-14T07:56:44;99256.88;;;3.92;100.00
46347;BME280;32057;47.830;19.046;2023-12-14T07:59:10;99259.53;;;3.95;100.00
46347;BME280;32057;47.830;19.046;2023-12-14T08:01:35;99270.72;;;3.95;100.00
46347;BME280;32057;47.830;19.046;2023-12-14T08:04:02;99269.84;;;3.95;100.00
46347;BME280;32057;47.830;19.046;2023-12-14T08:06:28;99283.63;;;3.97;100.00
46347;BME280;32057;47.830;19.046;2023-12-14T08:08:54;99279.38;;;3.99;100.00
46347;BME280;32057;47.830;19.046;2023-12-14T08:11:22;99287.22;;;4.02;100.00
46347;BME280;32057;47.830;19.046;2023-12-14T08:13:47;99290.66;;;4.03;100.00
46347;BME280;32057;47.830;19.046;2023-12-14T08:16:13;99296.03;;;4.10;100.00
46347;BME280;32057;47.830;19.046;2023-12-14T08:18:39;99299.41;;;4.09;100.00
46347;BME280;32057;47.830;19.046;2023-12-14T08:21:06;99297.75;;;4.11;100.00
46347;BME280;32057;47.830;19.046;2023-12-14T08:23:31;99298.72;;;4.15;100.00
46347;BME280;32057;47.830;19.046;2023-12-14T08:25:57;99302.91;;;4.11;100.00
46347;BME280;32057;47.830;19.046;2023-12-14T08:28:24;99303.03;;;4.14;100.00
46347;BME280;32057;47.830;19.046;2023-12-14T08:30:52;99310.78;;;4.16;100.00
46347;BME280;32057;47.830;19.046;2023-12-14T08:33:17;99310.75;;;4.14;100.00
46347;BME280;32057;47.830;19.046;2023-12-14T08:35:43;99309.09;;;4.16;100.00
46347;BME280;32057;47.830;19.046;2023-12-14T08:38:10;99317.72;;;4.18;100.00
46347;BME280;32057;47.830;19.046;2023-12-14T08:40:36;99320.41;;;4.22;100.00
46347;BME280;32057;47.830;19.046;2023-12-14T08:43:02;99328.16;;;4.23;100.00
46347;BME280;32057;47.830;19.046;2023-12-14T08:45:28;99328.16;;;4.23;100.00
46347;BME280;32057;47.830;19.046;2023-12-14T08:47:54;99335.13;;;4.26;100.00
46347;BME280;32057;47.830;19.046;2023-12-14T08:50:19;99334.38;;;4.30;100.00
46347;BME280;32057;47.830;19.046;2023-12-14T08:52:44;99343.03;;;4.32;100.00
46347;BME280;32057;47.830;19.046;2023-12-14T08:55:11;99343.03;;;4.32;100.00
46347;BME280;32057;47.830;19.046;2023-12-14T08:57:36;99344.75;;;4.33;100.00
46347;BME280;32057;47.830;19.046;2023-12-14T09:00:05;99344.00;;;4.37;100.00
46347;BME280;32057;47.830;19.046;2023-12-14T09:02:32;99349.94;;;4.34;100.00
46347;BME280;32057;47.830;19.046;2023-12-14T09:04:57;99349.16;;;4.37;100.00
46347;BME280;32057;47.830;19.046;2023-12-14T09:07:23;99350.06;;;4.39;100.00
46347;BME280;32057;47.830;19.046;2023-12-14T09:09:48;99350.06;;;4.39;100.00
46347;BME280;32057;47.830;19.046;2023-12-14T09:12:14;99348.41;;;4.41;100.00
46347;BME280;32057;47.830;19.046;2023-12-14T09:14:39;99351.00;;;4.41;100.00
46347;BME280;32057;47.830;19.046;2023-12-14T09:17:05;99354.41;;;4.40;100.00
46347;BME280;32057;47.830;19.046;2023-12-14T09:19:30;99349.34;;;4.43;100.00
46347;BME280;32057;47.830;19.046;2023-12-14T09:21:56;99359.75;;;4.46;100.00
46347;BME280;32057;47.830;19.046;2023-12-14T09:24:22;99356.31;;;4.46;100.00
46347;BME280;32057;47.830;19.046;2023-12-14T09:26:48;99353.69;;;4.44;100.00
46347;BME280;32057;47.830;19.046;2023-12-14T09:29:13;99366.69;;;4.49;100.00
46347;BME280;32057;47.830;19.046;2023-12-14T09:31:43;99365.81;;;4.48;100.00
46347;BME280;32057;47.830;19.046;2023-12-14T09:34:10;99359.88;;;4.51;100.00
46347;BME280;32057;47.830;19.046;2023-12-14T09:36:36;99362.56;;;4.54;100.00
46347;BME280;32057;47.830;19.046;2023-12-14T09:39:02;99365.19;;;4.57;100.00
46347;BME280;32057;47.830;19.046;2023-12-14T09:41:28;99369.66;;;4.63;100.00
46347;BME280;32057;47.830;19.046;2023-12-14T09:43:53;99368.78;;;4.62;100.00
46347;BME280;32057;47.830;19.046;2023-12-14T09:46:20;99375.78;;;4.66;100.00
46347;BME280;32057;47.830;19.046;2023-12-14T09:48:47;99372.50;;;4.72;100.00
46347;BME280;32057;47.830;19.046;2023-12-14T09:51:15;99376.81;;;4.73;100.00
46347;BME280;32057;47.830;19.046;2023-12-14T09:53:41;99382.06;;;4.76;100.00
46347;BME280;32057;47.830;19.046;2023-12-14T09:56:07;99384.72;;;4.79;100.00
46347;BME280;32057;47.830;19.046;2023-12-14T09:58:33;99381.28;;;4.78;100.00
46347;BME280;32057;47.830;19.046;2023-12-14T10:00:59;99394.22;;;4.80;100.00
46347;BME280;32057;47.830;19.046;2023-12-14T10:03:28;99384.81;;;4.82;100.00
46347;BME280;32057;47.830;19.046;2023-12-14T10:05:55;99390.84;;;4.83;100.00
46347;BME280;32057;47.830;19.046;2023-12-14T10:08:24;99401.09;;;4.81;100.00
46347;BME280;32057;47.830;19.046;2023-12-14T10:10:54;99402.00;;;4.83;100.00
46347;BME280;32057;47.830;19.046;2023-12-14T10:13:23;99403.78;;;4.84;100.00
46347;BME280;32057;47.830;19.046;2023-12-14T10:16:00;99413.22;;;4.84;100.00
46347;BME280;32057;47.830;19.046;2023-12-14T10:18:26;99406.34;;;4.84;100.00
46347;BME280;32057;47.830;19.046;2023-12-14T10:20:51;99406.34;;;4.84;100.00
46347;BME280;32057;47.830;19.046;2023-12-14T10:23:17;99409.84;;;4.86;100.00
46347;BME280;32057;47.830;19.046;2023-12-14T10:25:43;99404.59;;;4.83;100.00
46347;BME280;32057;47.830;19.046;2023-12-14T10:28:12;99413.34;;;4.88;100.00
46347;BME280;32057;47.830;19.046;2023-12-14T10:30:39;99418.59;;;4.91;100.00
46347;BME280;32057;47.830;19.046;2023-12-14T10:33:04;99418.59;;;4.91;100.00
46347;BME280;32057;47.830;19.046;2023-12-14T10:35:30;99421.38;;;4.99;100.00
46347;BME280;32057;47.830;19.046;2023-12-14T10:37:58;99426.56;;;5.01;100.00
46347;BME280;32057;47.830;19.046;2023-12-14T10:40:27;99422.50;;;5.09;100.00
46347;BME280;32057;47.830;19.046;2023-12-14T10:42:55;99430.41;;;5.15;100.00
46347;BME280;32057;47.830;19.046;2023-12-14T10:45:28;99427.13;;;5.21;100.00
46347;BME280;32057;47.830;19.046;2023-12-14T10:47:54;99431.47;;;5.23;100.00
46347;BME280;32057;47.830;19.046;2023-12-14T10:50:21;99432.53;;;5.30;100.00
46347;BME280;32057;47.830;19.046;2023-12-14T10:52:47;99432.53;;;5.30;100.00
46347;BME280;32057;47.830;19.046;2023-12-14T10:55:31;99442.97;;;5.34;100.00
46347;BME280;32057;47.830;19.046;2023-12-14T10:57:58;99439.69;;;5.40;100.00
46347;BME280;32057;47.830;19.046;2023-12-14T11:00:24;99439.03;;;5.49;100.00
46347;BME280;32057;47.830;19.046;2023-12-14T11:02:49;99440.91;;;5.54;100.00
46347;BME280;32057;47.830;19.046;2023-12-14T11:05:16;99449.72;;;5.63;100.00
46347;BME280;32057;47.830;19.046;2023-12-14T11:07:53;99443.81;;;5.67;100.00
46347;BME280;32057;47.830;19.046;2023-12-14T11:10:27;99448.09;;;5.66;100.00
46347;BME280;32057;47.830;19.046;2023-12-14T11:13:02;99457.69;;;5.70;100.00
46347;BME280;32057;47.830;19.046;2023-12-14T11:15:29;99463.84;;;5.77;100.00
46347;BME280;32057;47.830;19.046;2023-12-14T11:26:02;99467.31;;;6.11;100.00
46347;BME280;32057;47.830;19.046;2023-12-14T11:28:33;99469.97;;;6.14;100.00
46347;BME280;32057;47.830;19.046;2023-12-14T11:31:00;99470.19;;;6.22;100.00
46347;BME280;32057;47.830;19.046;2023-12-14T11:33:27;99473.72;;;6.27;100.00
46347;BME280;32057;47.830;19.046;2023-12-14T11:35:54;99474.72;;;6.32;100.00
46347;BME280;32057;47.830;19.046;2023-12-14T11:38:20;99486.00;;;6.37;100.00
46347;BME280;32057;47.830;19.046;2023-12-14T11:40:47;99478.41;;;6.42;100.00
46347;BME280;32057;47.830;19.046;2023-12-14T11:43:13;99482.75;;;6.44;100.00
46347;BME280;32057;47.830;19.046;2023-12-14T11:45:40;99481.06;;;6.46;100.00
46347;BME280;32057;47.830;19.046;2023-12-14T11:48:08;99485.41;;;6.47;100.00
46347;BME280;32057;47.830;19.046;2023-12-14T11:50:45;99491.56;;;6.52;100.00
46347;BME280;32057;47.830;19.046;2023-12-14T11:53:10;99488.16;;;6.55;100.00
46347;BME280;32057;47.830;19.046;2023-12-14T11:55:38;99481.34;;;6.58;100.00
46347;BME280;32057;47.830;19.046;2023-12-14T11:58:05;99486.66;;;6.65;100.00
46347;BME280;32057;47.830;19.046;2023-12-14T12:00:32;99482.47;;;6.70;100.00
46347;BME280;32057;47.830;19.046;2023-12-14T12:03:17;99483.50;;;6.78;100.00
46347;BME280;32057;47.830;19.046;2023-12-14T12:05:49;99488.81;;;6.84;100.00
46347;BME280;32057;47.830;19.046;2023-12-14T12:08:17;99485.47;;;6.88;100.00
46347;BME280;32057;47.830;19.046;2023-12-14T12:10:44;99485.59;;;6.94;100.00
46347;BME280;32057;47.830;19.046;2023-12-14T12:13:16;99488.25;;;6.97;100.00
46347;BME280;32057;47.830;19.046;2023-12-14T12:15:42;99487.47;;;7.02;100.00
46347;BME280;32057;47.830;19.046;2023-12-14T12:18:12;99497.94;;;7.08;100.00
46347;BME280;32057;47.830;19.046;2023-12-14T12:20:41;99498.88;;;7.11;100.00
46347;BME280;32057;47.830;19.046;2023-12-14T12:23:06;99499.75;;;7.12;100.00
46347;BME280;32057;47.830;19.046;2023-12-14T12:25:32;99503.31;;;7.17;100.00
46347;BME280;32057;47.830;19.046;2023-12-14T12:27:59;99498.16;;;7.17;100.00
46347;BME280;32057;47.830;19.046;2023-12-14T12:30:25;99499.09;;;7.22;100.00
46347;BME280;32057;47.830;19.046;2023-12-14T12:32:50;99501.75;;;7.25;100.00
46347;BME280;32057;47.830;19.046;2023-12-14T12:35:18;99506.00;;;7.22;100.00
46347;BME280;32057;47.830;19.046;2023-12-14T12:37:43;99508.63;;;7.23;100.00
46347;BME280;32057;47.830;19.046;2023-12-14T12:40:10;99503.44;;;7.25;100.00
46347;BME280;32057;47.830;19.046;2023-12-14T12:42:35;99512.13;;;7.25;100.00
46347;BME280;32057;47.830;19.046;2023-12-14T12:45:01;99517.22;;;7.22;100.00
46347;BME280;32057;47.830;19.046;2023-12-14T12:47:26;99516.34;;;7.22;100.00
46347;BME280;32057;47.830;19.046;2023-12-14T12:49:52;99520.56;;;7.18;100.00
46347;BME280;32057;47.830;19.046;2023-12-14T12:52:17;99518.00;;;7.18;100.00
46347;BME280;32057;47.830;19.046;2023-12-14T12:54:43;99520.44;;;7.12;100.00